createdAt,value
2018-12-11T00:00:56.911Z,1015.12
2018-12-11T00:01:56.889Z,1015.11
2018-12-11T00:02:56.859Z,1015.14
2018-12-11T00:03:56.835Z,1015.10
2018-12-11T00:04:56.806Z,1015.14
2018-12-11T00:05:56.781Z,1015.10
2018-12-11T00:06:56.767Z,1015.10
2018-12-11T00:07:56.730Z,1015.10
2018-12-11T00:08:56.704Z,1015.19
2018-12-11T00:09:56.677Z,1015.18
2018-12-11T00:10:56.650Z,1015.21
2018-12-11T00:11:56.640Z,1015.20
2018-12-11T00:12:56.599Z,1015.21
2018-12-11T00:13:56.580Z,1015.26
2018-12-11T00:14:56.545Z,1015.36
2018-12-11T00:15:56.520Z,1015.41
2018-12-11T00:16:56.492Z,1015.35
2018-12-11T00:17:56.468Z,1015.34
2018-12-11T00:18:56.442Z,1015.24
2018-12-11T00:19:56.428Z,1015.26
2018-12-11T00:20:56.391Z,1015.10
2018-12-11T00:21:56.397Z,1015.15
2018-12-11T00:22:56.347Z,1015.17
2018-12-11T00:23:56.311Z,1015.27
2018-12-11T00:24:56.292Z,1015.23
2018-12-11T00:25:56.268Z,1015.23
2018-12-11T00:26:56.231Z,1015.24
2018-12-11T00:27:56.206Z,1015.20
2018-12-11T00:28:56.187Z,1015.22
2018-12-11T00:29:56.158Z,1015.25
2018-12-11T00:30:56.134Z,1015.26
2018-12-11T00:31:56.105Z,1015.20
2018-12-11T00:32:56.078Z,1015.23
2018-12-11T00:33:56.054Z,1015.17
2018-12-11T00:34:56.025Z,1015.19
2018-12-11T00:35:55.997Z,1015.13
2018-12-11T00:36:55.976Z,1015.11
2018-12-11T00:37:55.955Z,1015.12
2018-12-11T00:38:55.920Z,1015.16
2018-12-11T00:39:55.895Z,1015.07
2018-12-11T00:40:55.921Z,1015.09
2018-12-11T00:41:55.841Z,1015.08
2018-12-11T00:42:55.821Z,1015.10
2018-12-11T00:43:55.792Z,1015.07
2018-12-11T00:44:55.763Z,1015.05
2018-12-11T00:45:55.745Z,1015.08
2018-12-11T00:46:55.712Z,1015.07
2018-12-11T00:47:55.694Z,1015.05
2018-12-11T00:48:55.658Z,1015.04
2018-12-11T00:49:55.641Z,1015.09
2018-12-11T00:50:55.613Z,1015.05
2018-12-11T00:51:55.586Z,1015.03
2018-12-11T00:52:55.553Z,1015.03
2018-12-11T00:53:55.530Z,1015.01
2018-12-11T00:54:55.500Z,1015.03
2018-12-11T00:55:55.474Z,1015.03
2018-12-11T00:56:55.466Z,1015.15
2018-12-11T00:57:55.431Z,1015.14
2018-12-11T00:58:55.414Z,1015.11
2018-12-11T00:59:55.373Z,1015.08
2018-12-11T01:00:55.344Z,1015.19
2018-12-11T01:01:55.317Z,1015.08
2018-12-11T01:02:55.292Z,1015.15
2018-12-11T01:03:55.271Z,1015.18
2018-12-11T01:04:55.245Z,1015.17
2018-12-11T01:05:55.220Z,1015.14
2018-12-11T01:06:55.187Z,1015.15
2018-12-11T01:07:55.161Z,1015.17
2018-12-11T01:08:55.132Z,1015.17
2018-12-11T01:09:55.114Z,1015.18
2018-12-11T01:10:55.081Z,1015.23
2018-12-11T01:11:55.061Z,1015.26
2018-12-11T01:12:55.026Z,1015.25
2018-12-11T01:13:55.001Z,1015.27
2018-12-11T01:14:54.976Z,1015.30
2018-12-11T01:15:54.960Z,1015.27
2018-12-11T01:16:54.924Z,1015.31
2018-12-11T01:17:54.907Z,1015.28
2018-12-11T01:18:54.880Z,1015.29
2018-12-11T01:19:54.844Z,1015.29
2018-12-11T01:20:54.821Z,1015.29
2018-12-11T01:21:54.794Z,1015.29
2018-12-11T01:22:54.765Z,1015.27
2018-12-11T01:23:54.741Z,1015.27
2018-12-11T01:24:54.712Z,1015.25
2018-12-11T01:25:54.697Z,1015.22
2018-12-11T01:26:54.659Z,1015.20
2018-12-11T01:27:54.632Z,1015.19
2018-12-11T01:28:54.607Z,1015.18
2018-12-11T01:29:54.582Z,1015.19
2018-12-11T01:30:54.554Z,1015.20
2018-12-11T01:31:54.528Z,1015.26
2018-12-11T01:32:54.505Z,1015.25
2018-12-11T01:33:54.532Z,1015.28
2018-12-11T01:34:54.456Z,1015.23
2018-12-11T01:35:54.422Z,1015.26
2018-12-11T01:36:54.398Z,1015.24
2018-12-11T01:37:54.370Z,1015.27
2018-12-11T01:38:54.342Z,1015.18
2018-12-11T01:39:54.322Z,1015.19
2018-12-11T01:40:54.293Z,1015.24
2018-12-11T01:41:54.265Z,1015.23
2018-12-11T01:42:54.239Z,1015.27
2018-12-11T01:43:54.210Z,1015.30
2018-12-11T01:44:54.183Z,1015.31
2018-12-11T01:45:54.166Z,1015.30
2018-12-11T01:46:54.130Z,1015.24
2018-12-11T01:47:54.105Z,1015.27
2018-12-11T01:48:54.080Z,1015.30
2018-12-11T01:49:54.052Z,1015.26
2018-12-11T01:50:54.025Z,1015.29
2018-12-11T01:51:53.999Z,1015.28
2018-12-11T01:52:53.973Z,1015.28
2018-12-11T01:53:53.946Z,1015.25
2018-12-11T01:54:53.916Z,1015.27
2018-12-11T01:55:53.894Z,1015.21
2018-12-11T01:56:53.871Z,1015.16
2018-12-11T01:57:53.901Z,1015.23
2018-12-11T01:58:53.814Z,1015.16
2018-12-11T01:59:53.788Z,1015.17
2018-12-11T02:00:53.762Z,1015.15
2018-12-11T02:01:53.736Z,1015.18
2018-12-11T02:02:53.707Z,1015.19
2018-12-11T02:03:53.682Z,1015.21
2018-12-11T02:04:53.654Z,1015.20
2018-12-11T02:05:53.631Z,1015.23
2018-12-11T02:06:53.611Z,1015.24
2018-12-11T02:07:53.576Z,1015.25
2018-12-11T02:08:53.550Z,1015.24
2018-12-11T02:09:53.526Z,1015.22
2018-12-11T02:10:53.498Z,1015.21
2018-12-11T02:11:53.469Z,1015.20
2018-12-11T02:12:53.443Z,1015.21
2018-12-11T02:13:53.416Z,1015.18
2018-12-11T02:14:53.390Z,1015.19
2018-12-11T02:15:53.374Z,1015.19
2018-12-11T02:16:53.339Z,1015.17
2018-12-11T02:17:53.311Z,1015.19
2018-12-11T02:18:53.287Z,1015.22
2018-12-11T02:19:53.256Z,1015.24
2018-12-11T02:20:53.231Z,1015.24
2018-12-11T02:21:53.205Z,1015.25
2018-12-11T02:22:53.185Z,1015.24
2018-12-11T02:23:53.254Z,1015.28
2018-12-11T02:24:53.125Z,1015.34
2018-12-11T02:25:53.105Z,1015.32
2018-12-11T02:26:53.070Z,1015.31
2018-12-11T02:27:53.043Z,1015.35
2018-12-11T02:28:53.025Z,1015.29
2018-12-11T02:29:52.991Z,1015.31
2018-12-11T02:30:52.971Z,1015.35
2018-12-11T02:31:52.946Z,1015.30
2018-12-11T02:32:52.922Z,1015.29
2018-12-11T02:33:52.894Z,1015.28
2018-12-11T02:34:52.868Z,1015.28
2018-12-11T02:35:52.835Z,1015.32
2018-12-11T02:36:52.812Z,1015.32
2018-12-11T02:37:52.796Z,1015.35
2018-12-11T02:38:52.752Z,1015.34
2018-12-11T02:39:52.727Z,1015.34
2018-12-11T02:40:52.700Z,1015.33
2018-12-11T02:41:52.674Z,1015.34
2018-12-11T02:42:52.645Z,1015.39
2018-12-11T02:43:52.620Z,1015.34
2018-12-11T02:44:52.593Z,1015.38
2018-12-11T02:45:52.568Z,1015.35
2018-12-11T02:46:52.539Z,1015.34
2018-12-11T02:47:52.518Z,1015.41
2018-12-11T02:48:52.487Z,1015.36
2018-12-11T02:49:52.462Z,1015.39
2018-12-11T02:50:52.435Z,1015.35
2018-12-11T02:51:52.416Z,1015.35
2018-12-11T02:52:52.379Z,1015.36
2018-12-11T02:53:52.355Z,1015.37
2018-12-11T02:54:52.346Z,1015.39
2018-12-11T02:55:52.312Z,1015.34
2018-12-11T02:56:52.282Z,1015.37
2018-12-11T02:57:52.249Z,1015.38
2018-12-11T02:58:52.228Z,1015.34
2018-12-11T02:59:52.195Z,1015.40
2018-12-11T03:00:52.170Z,1015.36
2018-12-11T03:01:52.176Z,1015.38
2018-12-11T03:02:52.115Z,1015.32
2018-12-11T03:03:52.101Z,1015.36
2018-12-11T03:04:52.080Z,1015.34
2018-12-11T03:05:52.138Z,1015.27
2018-12-11T03:06:52.008Z,1015.33
2018-12-11T03:07:51.984Z,1015.29
2018-12-11T03:08:51.968Z,1015.30
2018-12-11T03:09:51.929Z,1015.24
2018-12-11T03:10:51.912Z,1015.23
2018-12-11T03:11:51.874Z,1015.26
2018-12-11T03:12:51.849Z,1015.27
2018-12-11T03:13:51.824Z,1015.26
2018-12-11T03:14:51.796Z,1015.26
2018-12-11T03:15:51.777Z,1015.32
2018-12-11T03:16:51.745Z,1015.27
2018-12-11T03:17:51.715Z,1015.25
2018-12-11T03:18:51.688Z,1015.20
2018-12-11T03:19:51.662Z,1015.26
2018-12-11T03:20:51.636Z,1015.27
2018-12-11T03:21:51.612Z,1015.28
2018-12-11T03:22:51.583Z,1015.27
2018-12-11T03:23:51.564Z,1015.25
2018-12-11T03:24:51.530Z,1015.24
2018-12-11T03:25:51.503Z,1015.27
2018-12-11T03:26:51.477Z,1015.27
2018-12-11T03:27:51.450Z,1015.26
2018-12-11T03:28:51.425Z,1015.21
2018-12-11T03:29:51.399Z,1015.31
2018-12-11T03:30:51.371Z,1015.29
2018-12-11T03:31:51.344Z,1015.28
2018-12-11T03:32:51.319Z,1015.38
2018-12-11T03:33:51.295Z,1015.38
2018-12-11T03:34:51.269Z,1015.36
2018-12-11T03:35:51.236Z,1015.39
2018-12-11T03:36:51.212Z,1015.37
2018-12-11T03:37:51.188Z,1015.38
2018-12-11T03:38:51.175Z,1015.40
2018-12-11T03:39:51.133Z,1015.39
2018-12-11T03:40:51.113Z,1015.40
2018-12-11T03:41:51.180Z,1015.40
2018-12-11T03:42:51.049Z,1015.37
2018-12-11T03:43:51.026Z,1015.41
2018-12-11T03:44:50.998Z,1015.37
2018-12-11T03:45:50.978Z,1015.41
2018-12-11T03:46:50.952Z,1015.36
2018-12-11T03:47:50.920Z,1015.38
2018-12-11T03:48:50.893Z,1015.40
2018-12-11T03:49:50.874Z,1015.38
2018-12-11T03:50:50.837Z,1015.43
2018-12-11T03:51:50.811Z,1015.33
2018-12-11T03:52:50.783Z,1015.36
2018-12-11T03:53:50.760Z,1015.37
2018-12-11T03:54:50.738Z,1015.33
2018-12-11T03:55:50.702Z,1015.35
2018-12-11T03:56:50.676Z,1015.38
2018-12-11T03:57:50.651Z,1015.29
2018-12-11T03:58:50.625Z,1015.27
2018-12-11T03:59:50.596Z,1015.34
2018-12-11T04:00:50.576Z,1015.32
2018-12-11T04:01:50.543Z,1015.33
2018-12-11T04:02:50.519Z,1015.34
2018-12-11T04:03:50.489Z,1015.32
2018-12-11T04:04:50.463Z,1015.27
2018-12-11T04:05:50.437Z,1015.29
2018-12-11T04:06:50.418Z,1015.31
2018-12-11T04:07:50.386Z,1015.28
2018-12-11T04:08:50.357Z,1015.23
2018-12-11T04:09:50.330Z,1015.27
2018-12-11T04:10:50.304Z,1015.22
2018-12-11T04:11:50.278Z,1015.22
2018-12-11T04:12:50.251Z,1015.25
2018-12-11T04:13:50.224Z,1015.21
2018-12-11T04:14:50.194Z,1015.23
2018-12-11T04:15:50.169Z,1015.22
2018-12-11T04:16:50.147Z,1015.19
2018-12-11T04:17:50.116Z,1015.21
2018-12-11T04:18:50.088Z,1015.17
2018-12-11T04:19:50.067Z,1015.21
2018-12-11T04:20:50.045Z,1015.21
2018-12-11T04:21:50.010Z,1015.18
2018-12-11T04:22:49.980Z,1015.14
2018-12-11T04:23:49.956Z,1015.17
2018-12-11T04:24:49.929Z,1015.21
2018-12-11T04:25:49.904Z,1015.20
2018-12-11T04:26:49.877Z,1015.15
2018-12-11T04:27:49.850Z,1015.13
2018-12-11T04:28:49.823Z,1015.21
2018-12-11T04:29:49.796Z,1015.19
2018-12-11T04:30:49.766Z,1015.24
2018-12-11T04:31:49.741Z,1015.20
2018-12-11T04:32:49.721Z,1015.18
2018-12-11T04:33:49.706Z,1015.25
2018-12-11T04:34:49.661Z,1015.27
2018-12-11T04:35:49.633Z,1015.26
2018-12-11T04:36:49.606Z,1015.25
2018-12-11T04:37:49.581Z,1015.24
2018-12-11T04:38:49.586Z,1015.26
2018-12-11T04:39:49.535Z,1015.26
2018-12-11T04:40:49.500Z,1015.26
2018-12-11T04:41:49.474Z,1015.28
2018-12-11T04:42:49.448Z,1015.28
2018-12-11T04:43:49.420Z,1015.25
2018-12-11T04:44:49.393Z,1015.29
2018-12-11T04:45:49.367Z,1015.27
2018-12-11T04:46:49.339Z,1015.32
2018-12-11T04:47:49.324Z,1015.32
2018-12-11T04:48:49.342Z,1015.32
2018-12-11T04:49:49.262Z,1015.38
2018-12-11T04:50:49.231Z,1015.38
2018-12-11T04:51:49.218Z,1015.36
2018-12-11T04:52:49.187Z,1015.35
2018-12-11T04:53:49.152Z,1015.39
2018-12-11T04:54:49.127Z,1015.35
2018-12-11T04:55:49.097Z,1015.34
2018-12-11T04:56:49.074Z,1015.35
2018-12-11T04:57:49.048Z,1015.42
2018-12-11T04:58:49.020Z,1015.45
2018-12-11T04:59:48.992Z,1015.42
2018-12-11T05:00:48.966Z,1015.46
2018-12-11T05:01:48.939Z,1015.38
2018-12-11T05:02:48.912Z,1015.38
2018-12-11T05:03:48.889Z,1015.35
2018-12-11T05:04:48.858Z,1015.34
2018-12-11T05:05:48.831Z,1015.32
2018-12-11T05:06:48.804Z,1015.30
2018-12-11T05:07:48.780Z,1015.33
2018-12-11T05:08:48.752Z,1015.39
2018-12-11T05:09:48.723Z,1015.35
2018-12-11T05:10:48.702Z,1015.42
2018-12-11T05:11:48.671Z,1015.43
2018-12-11T05:12:48.650Z,1015.44
2018-12-11T05:13:48.635Z,1015.48
2018-12-11T05:14:48.593Z,1015.43
2018-12-11T05:15:48.564Z,1015.42
2018-12-11T05:16:48.541Z,1015.40
2018-12-11T05:17:48.541Z,1015.34
2018-12-11T05:18:48.485Z,1015.36
2018-12-11T05:19:48.456Z,1015.32
2018-12-11T05:20:48.431Z,1015.35
2018-12-11T05:21:48.406Z,1015.36
2018-12-11T05:22:48.390Z,1015.38
2018-12-11T05:23:48.359Z,1015.35
2018-12-11T05:24:48.326Z,1015.36
2018-12-11T05:25:48.300Z,1015.37
2018-12-11T05:26:48.274Z,1015.36
2018-12-11T05:27:48.258Z,1015.36
2018-12-11T05:28:48.219Z,1015.32
2018-12-11T05:29:48.192Z,1015.33
2018-12-11T05:30:48.167Z,1015.34
2018-12-11T05:31:48.144Z,1015.34
2018-12-11T05:32:48.113Z,1015.29
2018-12-11T05:33:48.090Z,1015.37
2018-12-11T05:34:48.062Z,1015.37
2018-12-11T05:35:48.034Z,1015.33
2018-12-11T05:36:48.018Z,1015.33
2018-12-11T05:37:47.981Z,1015.38
2018-12-11T05:38:47.954Z,1015.39
2018-12-11T05:39:47.928Z,1015.41
2018-12-11T05:40:47.903Z,1015.37
2018-12-11T05:41:47.891Z,1015.32
2018-12-11T05:42:47.851Z,1015.35
2018-12-11T05:43:47.829Z,1015.32
2018-12-11T05:44:47.798Z,1015.34
2018-12-11T05:45:47.769Z,1015.34
2018-12-11T05:46:47.751Z,1015.39
2018-12-11T05:47:47.717Z,1015.38
2018-12-11T05:48:47.692Z,1015.29
2018-12-11T05:49:47.679Z,1015.33
2018-12-11T05:50:47.638Z,1015.36
2018-12-11T05:51:47.616Z,1015.30
2018-12-11T05:52:47.584Z,1015.28
2018-12-11T05:53:47.558Z,1015.29
2018-12-11T05:54:47.536Z,1015.28
2018-12-11T05:55:47.505Z,1015.26
2018-12-11T05:56:47.478Z,1015.30
2018-12-11T05:57:47.451Z,1015.26
2018-12-11T05:58:47.427Z,1015.29
2018-12-11T05:59:47.399Z,1015.36
2018-12-11T06:00:48.532Z,1015.40
2018-12-11T06:01:47.360Z,1015.38
2018-12-11T06:02:47.320Z,1015.41
2018-12-11T06:03:47.292Z,1015.39
2018-12-11T06:04:47.267Z,1015.43
2018-12-11T06:05:47.250Z,1015.45
2018-12-11T06:06:47.214Z,1015.40
2018-12-11T06:07:47.187Z,1015.42
2018-12-11T06:08:47.161Z,1015.48
2018-12-11T06:09:47.136Z,1015.46
2018-12-11T06:10:47.112Z,1015.45
2018-12-11T06:11:47.081Z,1015.46
2018-12-11T06:12:47.055Z,1015.47
2018-12-11T06:13:47.040Z,1015.45
2018-12-11T06:14:47.017Z,1015.47
2018-12-11T06:15:46.976Z,1015.45
2018-12-11T06:16:46.950Z,1015.51
2018-12-11T06:17:46.940Z,1015.49
2018-12-11T06:18:46.896Z,1015.45
2018-12-11T06:19:46.871Z,1015.46
2018-12-11T06:20:46.846Z,1015.47
2018-12-11T06:21:46.825Z,1015.48
2018-12-11T06:22:46.890Z,1015.53
2018-12-11T06:23:46.776Z,1015.54
2018-12-11T06:24:46.740Z,1015.51
2018-12-11T06:25:46.713Z,1015.56
2018-12-11T06:26:46.686Z,1015.57
2018-12-11T06:27:46.661Z,1015.53
2018-12-11T06:28:46.683Z,1015.53
2018-12-11T06:29:46.617Z,1015.53
2018-12-11T06:30:46.579Z,1015.53
2018-12-11T06:31:46.604Z,1015.51
2018-12-11T06:32:46.528Z,1015.49
2018-12-11T06:33:46.502Z,1015.48
2018-12-11T06:34:46.474Z,1015.49
2018-12-11T06:35:46.448Z,1015.47
2018-12-11T06:36:46.433Z,1015.54
2018-12-11T06:37:46.395Z,1015.63
2018-12-11T06:38:46.381Z,1015.59
2018-12-11T06:39:46.343Z,1015.59
2018-12-11T06:40:47.683Z,1015.56
2018-12-11T06:41:46.291Z,1015.59
2018-12-11T06:42:46.264Z,1015.56
2018-12-11T06:43:46.246Z,1015.57
2018-12-11T06:44:46.212Z,1015.61
2018-12-11T06:45:46.187Z,1015.62
2018-12-11T06:46:46.157Z,1015.65
2018-12-11T06:47:46.130Z,1015.68
2018-12-11T06:48:46.111Z,1015.65
2018-12-11T06:49:46.080Z,1015.63
2018-12-11T06:50:46.053Z,1015.61
2018-12-11T06:51:46.033Z,1015.67
2018-12-11T06:52:46.001Z,1015.68
2018-12-11T06:53:45.974Z,1015.65
2018-12-11T06:54:45.947Z,1015.69
2018-12-11T06:55:45.920Z,1015.71
2018-12-11T06:56:45.894Z,1015.65
2018-12-11T06:57:45.871Z,1015.68
2018-12-11T06:58:45.841Z,1015.71
2018-12-11T06:59:45.816Z,1015.65
2018-12-11T07:00:45.797Z,1015.62
2018-12-11T07:01:45.763Z,1015.66
2018-12-11T07:02:45.738Z,1015.60
2018-12-11T07:03:45.713Z,1015.67
2018-12-11T07:04:45.686Z,1015.69
2018-12-11T07:05:45.657Z,1015.70
2018-12-11T07:06:45.633Z,1015.70
2018-12-11T07:07:45.689Z,1015.69
2018-12-11T07:08:45.580Z,1015.68
2018-12-11T07:09:45.553Z,1015.68
2018-12-11T07:10:45.526Z,1015.70
2018-12-11T07:11:45.501Z,1015.70
2018-12-11T07:12:45.472Z,1015.69
2018-12-11T07:13:45.448Z,1015.70
2018-12-11T07:14:45.424Z,1015.73
2018-12-11T07:15:45.393Z,1015.71
2018-12-11T07:16:45.370Z,1015.79
2018-12-11T07:17:45.351Z,1015.79
2018-12-11T07:18:45.315Z,1015.76
2018-12-11T07:19:45.291Z,1015.81
2018-12-11T07:20:45.262Z,1015.77
2018-12-11T07:21:45.244Z,1015.79
2018-12-11T07:22:45.213Z,1015.78
2018-12-11T07:23:45.185Z,1015.87
2018-12-11T07:24:45.173Z,1015.83
2018-12-11T07:25:45.133Z,1015.88
2018-12-11T07:26:45.105Z,1015.83
2018-12-11T07:27:45.076Z,1015.83
2018-12-11T07:28:45.061Z,1015.85
2018-12-11T07:29:45.033Z,1015.82
2018-12-11T07:30:45.006Z,1015.85
2018-12-11T07:31:44.973Z,1015.86
2018-12-11T07:32:44.947Z,1015.86
2018-12-11T07:33:50.691Z,1015.83
2018-12-11T07:34:44.895Z,1015.85
2018-12-11T07:35:44.868Z,1015.85
2018-12-11T07:36:44.842Z,1015.83
2018-12-11T07:37:44.821Z,1015.77
2018-12-11T07:38:44.813Z,1015.85
2018-12-11T07:39:44.761Z,1015.90
2018-12-11T07:40:44.735Z,1015.95
2018-12-11T07:41:44.716Z,1015.99
2018-12-11T07:42:44.686Z,1015.98
2018-12-11T07:43:44.715Z,1015.95
2018-12-11T07:44:44.634Z,1015.94
2018-12-11T07:45:44.603Z,1015.95
2018-12-11T07:46:44.574Z,1015.97
2018-12-11T07:47:44.549Z,1015.97
2018-12-11T07:48:44.523Z,1016.00
2018-12-11T07:49:44.503Z,1016.00
2018-12-11T07:50:44.474Z,1015.98
2018-12-11T07:51:44.442Z,1015.95
2018-12-11T07:52:44.417Z,1015.99
2018-12-11T07:53:44.390Z,1015.98
2018-12-11T07:54:44.366Z,1016.04
2018-12-11T07:55:44.345Z,1016.02
2018-12-11T07:56:44.341Z,1016.02
2018-12-11T07:57:44.284Z,1016.05
2018-12-11T07:58:44.263Z,1016.03
2018-12-11T07:59:44.231Z,1016.10
2018-12-11T08:00:44.216Z,1016.11
2018-12-11T08:01:44.196Z,1016.10
2018-12-11T08:02:44.152Z,1016.05
2018-12-11T08:03:44.132Z,1016.10
2018-12-11T08:04:44.098Z,1016.04
2018-12-11T08:05:44.074Z,1016.07
2018-12-11T08:06:44.048Z,1016.03
2018-12-11T08:07:44.028Z,1016.10
2018-12-11T08:08:43.996Z,1016.07
2018-12-11T08:09:43.970Z,1016.04
2018-12-11T08:10:43.942Z,1016.07
2018-12-11T08:11:43.916Z,1016.07
2018-12-11T08:12:43.889Z,1016.08
2018-12-11T08:13:43.868Z,1016.07
2018-12-11T08:14:43.839Z,1016.09
2018-12-11T08:15:43.810Z,1016.11
2018-12-11T08:16:43.787Z,1016.15
2018-12-11T08:17:43.761Z,1016.19
2018-12-11T08:18:43.730Z,1016.17
2018-12-11T08:19:43.704Z,1016.17
2018-12-11T08:20:43.691Z,1016.12
2018-12-11T08:21:43.651Z,1016.12
2018-12-11T08:22:43.697Z,1016.10
2018-12-11T08:23:43.603Z,1016.11
2018-12-11T08:24:43.572Z,1016.13
2018-12-11T08:25:43.548Z,1016.06
2018-12-11T08:26:43.518Z,1016.06
2018-12-11T08:27:43.494Z,1016.07
2018-12-11T08:28:43.467Z,1016.04
2018-12-11T08:29:43.441Z,1016.07
2018-12-11T08:30:43.418Z,1016.06
2018-12-11T08:31:43.391Z,1016.07
2018-12-11T08:32:43.362Z,1016.09
2018-12-11T08:33:43.336Z,1016.08
2018-12-11T08:34:43.310Z,1016.08
2018-12-11T08:35:43.294Z,1016.09
2018-12-11T08:36:43.259Z,1016.04
2018-12-11T08:37:43.232Z,1016.09
2018-12-11T08:38:43.208Z,1016.09
2018-12-11T08:39:43.187Z,1016.08
2018-12-11T08:40:43.158Z,1016.10
2018-12-11T08:41:43.130Z,1016.08
2018-12-11T08:42:43.101Z,1016.08
2018-12-11T08:43:43.084Z,1016.12
2018-12-11T08:44:43.054Z,1016.09
2018-12-11T08:45:43.035Z,1016.10
2018-12-11T08:46:43.010Z,1016.16
2018-12-11T08:47:42.977Z,1016.13
2018-12-11T08:48:42.957Z,1016.10
2018-12-11T08:49:42.925Z,1016.15
2018-12-11T08:50:42.894Z,1016.14
2018-12-11T08:51:42.908Z,1016.16
2018-12-11T08:52:42.853Z,1016.15
2018-12-11T08:53:42.819Z,1016.15
2018-12-11T08:54:42.863Z,1016.14
2018-12-11T08:55:42.768Z,1016.14
2018-12-11T08:56:42.744Z,1016.14
2018-12-11T08:57:42.719Z,1016.21
2018-12-11T08:58:42.698Z,1016.20
2018-12-11T08:59:42.665Z,1016.18
2018-12-11T09:00:42.653Z,1016.21
2018-12-11T09:01:42.616Z,1016.26
2018-12-11T09:02:42.590Z,1016.21
2018-12-11T09:03:42.563Z,1016.15
2018-12-11T09:04:42.543Z,1016.16
2018-12-11T09:05:42.521Z,1016.14
2018-12-11T09:06:42.493Z,1016.19
2018-12-11T09:07:42.465Z,1016.21
2018-12-11T09:08:42.446Z,1016.20
2018-12-11T09:09:42.415Z,1016.21
2018-12-11T09:10:42.397Z,1016.27
2018-12-11T09:11:42.365Z,1016.21
2018-12-11T09:12:42.339Z,1016.27
2018-12-11T09:13:42.312Z,1016.29
2018-12-11T09:14:42.285Z,1016.22
2018-12-11T09:15:42.262Z,1016.22
2018-12-11T09:16:42.295Z,1016.24
2018-12-11T09:17:42.210Z,1016.28
2018-12-11T09:18:42.185Z,1016.25
2018-12-11T09:19:42.172Z,1016.27
2018-12-11T09:20:42.137Z,1016.24
2018-12-11T09:21:42.111Z,1016.26
2018-12-11T09:22:42.135Z,1016.30
2018-12-11T09:23:42.069Z,1016.30
2018-12-11T09:24:42.044Z,1016.29
2018-12-11T09:25:42.024Z,1016.38
2018-12-11T09:26:41.992Z,1016.38
2018-12-11T09:27:41.970Z,1016.38
2018-12-11T09:28:41.935Z,1016.37
2018-12-11T09:29:41.915Z,1016.39
2018-12-11T09:30:41.886Z,1016.47
2018-12-11T09:31:41.861Z,1016.50
2018-12-11T09:32:41.836Z,1016.54
2018-12-11T09:33:41.810Z,1016.60
2018-12-11T09:34:41.785Z,1016.57
2018-12-11T09:35:41.761Z,1016.52
2018-12-11T09:36:41.737Z,1016.42
2018-12-11T09:37:41.732Z,1016.37
2018-12-11T09:38:41.686Z,1016.34
2018-12-11T09:39:41.667Z,1016.32
2018-12-11T09:40:41.647Z,1016.37
2018-12-11T09:41:41.616Z,1016.36
2018-12-11T09:42:41.589Z,1016.42
2018-12-11T09:43:41.565Z,1016.39
2018-12-11T09:44:41.551Z,1016.41
2018-12-11T09:45:41.517Z,1016.42
2018-12-11T09:46:41.490Z,1016.44
2018-12-11T09:47:41.470Z,1016.43
2018-12-11T09:48:41.452Z,1016.40
2018-12-11T09:49:41.419Z,1016.45
2018-12-11T09:50:41.392Z,1016.51
2018-12-11T09:51:41.374Z,1016.54
2018-12-11T09:52:41.345Z,1016.50
2018-12-11T09:53:41.328Z,1016.56
2018-12-11T09:54:41.302Z,1016.62
2018-12-11T09:55:41.272Z,1016.66
2018-12-11T09:56:41.262Z,1016.59
2018-12-11T09:57:41.223Z,1016.67
2018-12-11T09:58:41.197Z,1016.70
2018-12-11T09:59:41.183Z,1016.73
2018-12-11T10:00:41.226Z,1016.72
2018-12-11T10:01:41.125Z,1016.74
2018-12-11T10:02:41.109Z,1016.66
2018-12-11T10:03:41.155Z,1016.67
2018-12-11T10:04:41.054Z,1016.67
2018-12-11T10:05:41.036Z,1016.64
2018-12-11T10:06:41.020Z,1016.64
2018-12-11T10:07:40.983Z,1016.59
2018-12-11T10:08:40.959Z,1016.56
2018-12-11T10:09:40.935Z,1016.58
2018-12-11T10:10:40.909Z,1016.61
2018-12-11T10:11:40.885Z,1016.61
2018-12-11T10:12:40.863Z,1016.58
2018-12-11T10:13:40.841Z,1016.56
2018-12-11T10:14:40.817Z,1016.54
2018-12-11T10:15:40.803Z,1016.52
2018-12-11T10:16:40.769Z,1016.52
2018-12-11T10:17:40.746Z,1016.51
2018-12-11T10:18:40.718Z,1016.49
2018-12-11T10:19:40.700Z,1016.46
2018-12-11T10:20:40.684Z,1016.51
2018-12-11T10:21:40.648Z,1016.51
2018-12-11T10:22:40.625Z,1016.51
2018-12-11T10:23:40.600Z,1016.55
2018-12-11T10:24:40.576Z,1016.52
2018-12-11T10:25:40.555Z,1016.53
2018-12-11T10:26:40.601Z,1016.55
2018-12-11T10:27:40.505Z,1016.52
2018-12-11T10:28:40.479Z,1016.59
2018-12-11T10:29:40.464Z,1016.59
2018-12-11T10:30:40.440Z,1016.54
2018-12-11T10:31:40.410Z,1016.53
2018-12-11T10:32:40.385Z,1016.57
2018-12-11T10:33:40.360Z,1016.55
2018-12-11T10:34:40.346Z,1016.55
2018-12-11T10:35:40.312Z,1016.52
2018-12-11T10:36:40.290Z,1016.51
2018-12-11T10:37:40.325Z,1016.50
2018-12-11T10:38:40.253Z,1016.45
2018-12-11T10:39:40.228Z,1016.45
2018-12-11T10:40:40.211Z,1016.44
2018-12-11T10:41:40.175Z,1016.43
2018-12-11T10:42:40.150Z,1016.50
2018-12-11T10:43:40.133Z,1016.43
2018-12-11T10:44:40.112Z,1016.45
2018-12-11T10:45:40.083Z,1016.41
2018-12-11T10:46:40.056Z,1016.48
2018-12-11T10:47:40.050Z,1016.47
2018-12-11T10:48:40.010Z,1016.51
2018-12-11T10:49:39.988Z,1016.53
2018-12-11T10:50:40.065Z,1016.50
2018-12-11T10:51:39.941Z,1016.47
2018-12-11T10:52:39.922Z,1016.52
2018-12-11T10:53:39.896Z,1016.53
2018-12-11T10:54:39.869Z,1016.50
2018-12-11T10:55:39.847Z,1016.50
2018-12-11T10:56:39.833Z,1016.51
2018-12-11T10:57:39.801Z,1016.50
2018-12-11T10:58:39.783Z,1016.52
2018-12-11T10:59:39.754Z,1016.52
2018-12-11T11:00:39.734Z,1016.59
2018-12-11T11:01:39.718Z,1016.56
2018-12-11T11:02:39.683Z,1016.59
2018-12-11T11:03:39.662Z,1016.57
2018-12-11T11:04:39.638Z,1016.53
2018-12-11T11:05:39.617Z,1016.53
2018-12-11T11:06:39.592Z,1016.51
2018-12-11T11:07:39.568Z,1016.49
2018-12-11T11:08:39.548Z,1016.52
2018-12-11T11:09:39.557Z,1016.46
2018-12-11T11:10:39.502Z,1016.49
2018-12-11T11:11:39.478Z,1016.47
2018-12-11T11:12:39.453Z,1016.45
2018-12-11T11:13:39.452Z,1016.44
2018-12-11T11:14:39.417Z,1016.40
2018-12-11T11:15:39.385Z,1016.44
2018-12-11T11:16:39.364Z,1016.45
2018-12-11T11:17:39.340Z,1016.44
2018-12-11T11:18:39.315Z,1016.45
2018-12-11T11:19:39.302Z,1016.44
2018-12-11T11:20:39.271Z,1016.46
2018-12-11T11:21:39.251Z,1016.46
2018-12-11T11:22:39.231Z,1016.44
2018-12-11T11:23:39.210Z,1016.41
2018-12-11T11:24:39.177Z,1016.47
2018-12-11T11:25:39.161Z,1016.47
2018-12-11T11:26:39.132Z,1016.47
2018-12-11T11:27:39.118Z,1016.46
2018-12-11T11:28:39.087Z,1016.45
2018-12-11T11:29:39.082Z,1016.47
2018-12-11T11:30:39.050Z,1016.45
2018-12-11T11:31:39.021Z,1016.45
2018-12-11T11:32:39.001Z,1016.52
2018-12-11T11:33:38.976Z,1016.48
2018-12-11T11:34:38.961Z,1016.47
2018-12-11T11:35:38.930Z,1016.47
2018-12-11T11:36:38.924Z,1016.50
2018-12-11T11:37:38.902Z,1016.50
2018-12-11T11:38:38.862Z,1016.49
2018-12-11T11:39:38.848Z,1016.46
2018-12-11T11:40:38.819Z,1016.47
2018-12-11T11:41:38.805Z,1016.50
2018-12-11T11:42:38.774Z,1016.51
2018-12-11T11:43:38.753Z,1016.46
2018-12-11T11:44:38.740Z,1016.48
2018-12-11T11:45:38.709Z,1016.47
2018-12-11T11:46:38.718Z,1016.48
2018-12-11T11:47:38.663Z,1016.44
2018-12-11T11:48:38.645Z,1016.47
2018-12-11T11:49:38.628Z,1016.44
2018-12-11T11:50:38.599Z,1016.41
2018-12-11T11:51:38.582Z,1016.43
2018-12-11T11:52:38.563Z,1016.46
2018-12-11T11:53:38.544Z,1016.40
2018-12-11T11:54:38.523Z,1016.43
2018-12-11T11:55:38.499Z,1016.43
2018-12-11T11:56:38.483Z,1016.43
2018-12-11T11:57:38.455Z,1016.35
2018-12-11T11:58:38.426Z,1016.37
2018-12-11T11:59:38.403Z,1016.37
2018-12-11T12:00:38.383Z,1016.37
2018-12-11T12:01:38.370Z,1016.40
2018-12-11T12:02:38.346Z,1016.45
2018-12-11T12:03:38.338Z,1016.49
2018-12-11T12:04:38.300Z,1016.41
2018-12-11T12:05:38.279Z,1016.46